sensor_id;sensor_type;location;lat;lon;timestamp;P1;durP1;ratioP1;P2;durP2;ratioP2
14789;SDS011;7486;51.010;10.366;2023-06-22T00:00:30;3.85;;;2.75;;
14789;SDS011;7486;51.010;10.366;2023-06-22T00:03:19;3.65;;;2.90;;
14789;SDS011;7486;51.010;10.366;2023-06-22T00:06:07;3.78;;;3.30;;
14789;SDS011;7486;51.010;10.366;2023-06-22T00:08:52;3.30;;;3.00;;
14789;SDS011;7486;51.010;10.366;2023-06-22T00:11:38;3.50;;;3.20;;
14789;SDS011;7486;51.010;10.366;2023-06-22T00:14:23;3.40;;;3.10;;
14789;SDS011;7486;51.010;10.366;2023-06-22T00:17:08;3.55;;;3.05;;
14789;SDS011;7486;51.010;10.366;2023-06-22T00:19:54;3.47;;;3.17;;
14789;SDS011;7486;51.010;10.366;2023-06-22T00:22:39;3.67;;;3.20;;
14789;SDS011;7486;51.010;10.366;2023-06-22T00:25:25;4.35;;;2.70;;
14789;SDS011;7486;51.010;10.366;2023-06-22T00:28:10;4.68;;;3.20;;
14789;SDS011;7486;51.010;10.366;2023-06-22T00:30:56;4.45;;;2.90;;
14789;SDS011;7486;51.010;10.366;2023-06-22T00:33:43;5.28;;;3.60;;
14789;SDS011;7486;51.010;10.366;2023-06-22T00:36:28;3.55;;;3.25;;
14789;SDS011;7486;51.010;10.366;2023-06-22T00:39:14;5.28;;;3.30;;
14789;SDS011;7486;51.010;10.366;2023-06-22T00:42:00;5.22;;;2.90;;
14789;SDS011;7486;51.010;10.366;2023-06-22T00:44:48;4.25;;;3.17;;
14789;SDS011;7486;51.010;10.366;2023-06-22T00:47:34;3.85;;;3.42;;
14789;SDS011;7486;51.010;10.366;2023-06-22T00:50:22;4.93;;;3.40;;
14789;SDS011;7486;51.010;10.366;2023-06-22T00:53:14;5.82;;;3.42;;
14789;SDS011;7486;51.010;10.366;2023-06-22T00:56:01;5.20;;;3.05;;
14789;SDS011;7486;51.010;10.366;2023-06-22T00:58:46;6.13;;;3.60;;
14789;SDS011;7486;51.010;10.366;2023-06-22T01:01:34;6.63;;;3.33;;
14789;SDS011;7486;51.010;10.366;2023-06-22T01:04:20;5.50;;;3.47;;
14789;SDS011;7486;51.010;10.366;2023-06-22T01:07:10;4.93;;;3.33;;
14789;SDS011;7486;51.010;10.366;2023-06-22T01:16:20;8.50;;;3.38;;
14789;SDS011;7486;51.010;10.366;2023-06-22T01:22:20;6.05;;;3.17;;
14789;SDS011;7486;51.010;10.366;2023-06-22T01:25:12;6.82;;;3.22;;
14789;SDS011;7486;51.010;10.366;2023-06-22T01:28:05;9.38;;;2.90;;
14789;SDS011;7486;51.010;10.366;2023-06-22T01:31:02;8.10;;;3.10;;
14789;SDS011;7486;51.010;10.366;2023-06-22T01:33:55;8.18;;;3.60;;
14789;SDS011;7486;51.010;10.366;2023-06-22T01:36:44;9.05;;;3.33;;
14789;SDS011;7486;51.010;10.366;2023-06-22T01:39:30;5.07;;;3.33;;
14789;SDS011;7486;51.010;10.366;2023-06-22T01:42:16;5.55;;;3.58;;
14789;SDS011;7486;51.010;10.366;2023-06-22T01:45:02;11.65;;;3.80;;
14789;SDS011;7486;51.010;10.366;2023-06-22T01:47:48;12.90;;;3.88;;
14789;SDS011;7486;51.010;10.366;2023-06-22T01:50:34;6.05;;;4.00;;
14789;SDS011;7486;51.010;10.366;2023-06-22T01:53:21;6.97;;;3.47;;
14789;SDS011;7486;51.010;10.366;2023-06-22T01:56:09;7.20;;;4.00;;
14789;SDS011;7486;51.010;10.366;2023-06-22T02:02:25;9.00;;;4.07;;
14789;SDS011;7486;51.010;10.366;2023-06-22T02:05:15;9.73;;;4.20;;
14789;SDS011;7486;51.010;10.366;2023-06-22T02:08:09;10.05;;;5.00;;
14789;SDS011;7486;51.010;10.366;2023-06-22T02:10:59;6.72;;;4.70;;
14789;SDS011;7486;51.010;10.366;2023-06-22T02:13:47;9.00;;;5.00;;
14789;SDS011;7486;51.010;10.366;2023-06-22T02:16:33;10.32;;;5.05;;
14789;SDS011;7486;51.010;10.366;2023-06-22T02:19:23;6.13;;;5.07;;
14789;SDS011;7486;51.010;10.366;2023-06-22T02:22:10;5.10;;;4.60;;
14789;SDS011;7486;51.010;10.366;2023-06-22T02:24:56;8.43;;;5.15;;
14789;SDS011;7486;51.010;10.366;2023-06-22T02:27:43;7.80;;;5.32;;
14789;SDS011;7486;51.010;10.366;2023-06-22T02:30:28;6.22;;;4.90;;
14789;SDS011;7486;51.010;10.366;2023-06-22T02:33:14;9.50;;;5.22;;
14789;SDS011;7486;51.010;10.366;2023-06-22T02:36:00;8.93;;;5.28;;
14789;SDS011;7486;51.010;10.366;2023-06-22T02:38:46;9.73;;;5.55;;
14789;SDS011;7486;51.010;10.366;2023-06-22T02:41:31;8.23;;;5.15;;
14789;SDS011;7486;51.010;10.366;2023-06-22T02:44:16;9.10;;;5.68;;
14789;SDS011;7486;51.010;10.366;2023-06-22T02:47:02;7.07;;;4.97;;
14789;SDS011;7486;51.010;10.366;2023-06-22T02:49:48;6.35;;;5.75;;
14789;SDS011;7486;51.010;10.366;2023-06-22T02:52:33;8.77;;;5.53;;
14789;SDS011;7486;51.010;10.366;2023-06-22T02:55:19;6.45;;;5.38;;
14789;SDS011;7486;51.010;10.366;2023-06-22T02:58:12;5.93;;;5.35;;
14789;SDS011;7486;51.010;10.366;2023-06-22T03:00:57;6.20;;;4.80;;
14789;SDS011;7486;51.010;10.366;2023-06-22T03:03:43;6.88;;;4.93;;
14789;SDS011;7486;51.010;10.366;2023-06-22T03:06:28;9.30;;;4.60;;
14789;SDS011;7486;51.010;10.366;2023-06-22T03:09:13;7.13;;;4.75;;
14789;SDS011;7486;51.010;10.366;2023-06-22T03:11:59;5.90;;;4.35;;
14789;SDS011;7486;51.010;10.366;2023-06-22T03:14:52;8.48;;;4.80;;
14789;SDS011;7486;51.010;10.366;2023-06-22T03:17:38;10.63;;;5.03;;
14789;SDS011;7486;51.010;10.366;2023-06-22T03:20:25;15.93;;;5.13;;
14789;SDS011;7486;51.010;10.366;2023-06-22T03:23:11;13.63;;;5.00;;
14789;SDS011;7486;51.010;10.366;2023-06-22T03:25:57;8.95;;;4.97;;
14789;SDS011;7486;51.010;10.366;2023-06-22T03:28:42;9.35;;;5.70;;
14789;SDS011;7486;51.010;10.366;2023-06-22T03:31:28;6.82;;;5.72;;
14789;SDS011;7486;51.010;10.366;2023-06-22T03:34:14;8.20;;;5.93;;
14789;SDS011;7486;51.010;10.366;2023-06-22T03:36:59;8.20;;;5.95;;
14789;SDS011;7486;51.010;10.366;2023-06-22T03:39:45;6.57;;;5.97;;
14789;SDS011;7486;51.010;10.366;2023-06-22T03:42:33;7.38;;;6.30;;
14789;SDS011;7486;51.010;10.366;2023-06-22T03:45:20;10.00;;;5.35;;
14789;SDS011;7486;51.010;10.366;2023-06-22T03:48:06;8.15;;;5.80;;
14789;SDS011;7486;51.010;10.366;2023-06-22T03:50:51;7.30;;;5.63;;
14789;SDS011;7486;51.010;10.366;2023-06-22T03:53:37;8.15;;;6.15;;
14789;SDS011;7486;51.010;10.366;2023-06-22T03:56:22;9.13;;;5.80;;
14789;SDS011;7486;51.010;10.366;2023-06-22T03:59:07;7.93;;;5.40;;
14789;SDS011;7486;51.010;10.366;2023-06-22T04:01:52;10.85;;;6.03;;
14789;SDS011;7486;51.010;10.366;2023-06-22T04:04:38;6.22;;;5.50;;
14789;SDS011;7486;51.010;10.366;2023-06-22T04:07:24;9.07;;;5.53;;
14789;SDS011;7486;51.010;10.366;2023-06-22T04:10:09;9.48;;;6.05;;
14789;SDS011;7486;51.010;10.366;2023-06-22T04:13:10;6.13;;;5.47;;
14789;SDS011;7486;51.010;10.366;2023-06-22T04:15:56;6.65;;;5.72;;
14789;SDS011;7486;51.010;10.366;2023-06-22T04:18:41;7.22;;;5.32;;
14789;SDS011;7486;51.010;10.366;2023-06-22T04:21:27;5.82;;;4.88;;
14789;SDS011;7486;51.010;10.366;2023-06-22T04:24:12;7.28;;;5.68;;
14789;SDS011;7486;51.010;10.366;2023-06-22T04:26:58;5.97;;;5.38;;
14789;SDS011;7486;51.010;10.366;2023-06-22T04:29:43;7.65;;;5.50;;
14789;SDS011;7486;51.010;10.366;2023-06-22T04:32:29;8.90;;;5.95;;
14789;SDS011;7486;51.010;10.366;2023-06-22T04:35:14;7.97;;;5.90;;
14789;SDS011;7486;51.010;10.366;2023-06-22T04:38:00;7.85;;;6.28;;
14789;SDS011;7486;51.010;10.366;2023-06-22T04:40:45;9.70;;;5.88;;
14789;SDS011;7486;51.010;10.366;2023-06-22T04:43:30;6.05;;;5.45;;
14789;SDS011;7486;51.010;10.366;2023-06-22T04:46:16;7.25;;;5.70;;
14789;SDS011;7486;51.010;10.366;2023-06-22T04:49:01;7.65;;;6.65;;
14789;SDS011;7486;51.010;10.366;2023-06-22T04:51:47;6.97;;;6.03;;
14789;SDS011;7486;51.010;10.366;2023-06-22T04:54:33;6.65;;;6.05;;
14789;SDS011;7486;51.010;10.366;2023-06-22T04:57:20;7.15;;;6.38;;
14789;SDS011;7486;51.010;10.366;2023-06-22T05:00:06;6.88;;;5.90;;
14789;SDS011;7486;51.010;10.366;2023-06-22T05:02:52;9.95;;;5.90;;
14789;SDS011;7486;51.010;10.366;2023-06-22T05:05:48;8.35;;;6.40;;
14789;SDS011;7486;51.010;10.366;2023-06-22T05:08:33;8.63;;;6.53;;
14789;SDS011;7486;51.010;10.366;2023-06-22T05:11:19;7.85;;;6.70;;
14789;SDS011;7486;51.010;10.366;2023-06-22T05:14:04;11.77;;;7.32;;
14789;SDS011;7486;51.010;10.366;2023-06-22T05:16:50;7.95;;;6.70;;
14789;SDS011;7486;51.010;10.366;2023-06-22T05:19:35;7.43;;;6.72;;
14789;SDS011;7486;51.010;10.366;2023-06-22T05:22:21;9.00;;;7.45;;
14789;SDS011;7486;51.010;10.366;2023-06-22T05:25:08;8.38;;;6.78;;
14789;SDS011;7486;51.010;10.366;2023-06-22T05:27:55;10.38;;;6.60;;
14789;SDS011;7486;51.010;10.366;2023-06-22T05:30:43;8.40;;;7.20;;
14789;SDS011;7486;51.010;10.366;2023-06-22T05:33:28;10.35;;;7.07;;
14789;SDS011;7486;51.010;10.366;2023-06-22T05:36:14;8.27;;;7.00;;
14789;SDS011;7486;51.010;10.366;2023-06-22T05:39:09;7.40;;;6.60;;
14789;SDS011;7486;51.010;10.366;2023-06-22T05:41:56;7.65;;;6.70;;
14789;SDS011;7486;51.010;10.366;2023-06-22T05:44:41;9.05;;;6.45;;
14789;SDS011;7486;51.010;10.366;2023-06-22T05:47:27;7.90;;;7.10;;
14789;SDS011;7486;51.010;10.366;2023-06-22T05:50:12;8.55;;;7.00;;
14789;SDS011;7486;51.010;10.366;2023-06-22T05:52:58;8.30;;;7.20;;
14789;SDS011;7486;51.010;10.366;2023-06-22T05:55:43;7.80;;;7.07;;
14789;SDS011;7486;51.010;10.366;2023-06-22T05:58:28;8.93;;;7.18;;
14789;SDS011;7486;51.010;10.366;2023-06-22T06:01:14;7.82;;;6.80;;
14789;SDS011;7486;51.010;10.366;2023-06-22T06:03:59;8.25;;;6.63;;
14789;SDS011;7486;51.010;10.366;2023-06-22T06:06:45;7.93;;;6.45;;
14789;SDS011;7486;51.010;10.366;2023-06-22T06:09:31;10.07;;;7.03;;
14789;SDS011;7486;51.010;10.366;2023-06-22T06:12:17;7.55;;;6.75;;
14789;SDS011;7486;51.010;10.366;2023-06-22T06:15:03;7.47;;;6.70;;
14789;SDS011;7486;51.010;10.366;2023-06-22T06:17:50;8.20;;;6.45;;
14789;SDS011;7486;51.010;10.366;2023-06-22T06:20:37;7.18;;;6.47;;
14789;SDS011;7486;51.010;10.366;2023-06-22T06:23:22;6.72;;;6.13;;
14789;SDS011;7486;51.010;10.366;2023-06-22T06:26:08;7.28;;;6.53;;
14789;SDS011;7486;51.010;10.366;2023-06-22T06:28:55;7.10;;;6.25;;
14789;SDS011;7486;51.010;10.366;2023-06-22T06:31:41;6.45;;;5.85;;
14789;SDS011;7486;51.010;10.366;2023-06-22T06:34:27;6.95;;;5.60;;
14789;SDS011;7486;51.010;10.366;2023-06-22T06:37:12;5.78;;;5.20;;
14789;SDS011;7486;51.010;10.366;2023-06-22T06:39:58;5.60;;;5.10;;
14789;SDS011;7486;51.010;10.366;2023-06-22T06:42:44;5.85;;;5.25;;
14789;SDS011;7486;51.010;10.366;2023-06-22T06:45:30;6.00;;;5.10;;
14789;SDS011;7486;51.010;10.366;2023-06-22T06:48:16;5.63;;;5.13;;
14789;SDS011;7486;51.010;10.366;2023-06-22T06:51:01;5.85;;;4.85;;
14789;SDS011;7486;51.010;10.366;2023-06-22T06:53:47;6.72;;;4.85;;
14789;SDS011;7486;51.010;10.366;2023-06-22T06:56:32;5.78;;;5.22;;
14789;SDS011;7486;51.010;10.366;2023-06-22T06:59:18;5.45;;;4.93;;
14789;SDS011;7486;51.010;10.366;2023-06-22T07:02:04;5.45;;;4.95;;
14789;SDS011;7486;51.010;10.366;2023-06-22T07:04:49;5.68;;;5.18;;
14789;SDS011;7486;51.010;10.366;2023-06-22T07:07:35;5.85;;;5.35;;
14789;SDS011;7486;51.010;10.366;2023-06-22T07:10:22;6.22;;;5.63;;
14789;SDS011;7486;51.010;10.366;2023-06-22T07:13:08;6.18;;;5.57;;
14789;SDS011;7486;51.010;10.366;2023-06-22T07:15:53;6.72;;;6.03;;
14789;SDS011;7486;51.010;10.366;2023-06-22T07:18:39;6.70;;;6.00;;
14789;SDS011;7486;51.010;10.366;2023-06-22T07:21:25;8.30;;;5.85;;
14789;SDS011;7486;51.010;10.366;2023-06-22T07:24:11;6.68;;;5.75;;
14789;SDS011;7486;51.010;10.366;2023-06-22T07:26:56;6.15;;;5.50;;
14789;SDS011;7486;51.010;10.366;2023-06-22T07:29:42;8.85;;;6.20;;
14789;SDS011;7486;51.010;10.366;2023-06-22T07:32:27;6.10;;;5.47;;
14789;SDS011;7486;51.010;10.366;2023-06-22T07:35:13;7.18;;;6.47;;
14789;SDS011;7486;51.010;10.366;2023-06-22T07:37:59;7.05;;;5.88;;
14789;SDS011;7486;51.010;10.366;2023-06-22T07:40:50;6.80;;;6.20;;
14789;SDS011;7486;51.010;10.366;2023-06-22T07:43:35;7.00;;;5.90;;
14789;SDS011;7486;51.010;10.366;2023-06-22T07:46:20;6.70;;;6.10;;
14789;SDS011;7486;51.010;10.366;2023-06-22T07:49:06;6.30;;;5.70;;
14789;SDS011;7486;51.010;10.366;2023-06-22T07:51:51;7.07;;;6.15;;
14789;SDS011;7486;51.010;10.366;2023-06-22T07:54:37;7.03;;;6.20;;
14789;SDS011;7486;51.010;10.366;2023-06-22T07:57:23;7.55;;;6.80;;
14789;SDS011;7486;51.010;10.366;2023-06-22T08:00:10;7.07;;;6.38;;
14789;SDS011;7486;51.010;10.366;2023-06-22T08:02:56;6.57;;;5.95;;
14789;SDS011;7486;51.010;10.366;2023-06-22T08:05:41;7.82;;;6.85;;
14789;SDS011;7486;51.010;10.366;2023-06-22T08:08:27;7.47;;;6.68;;
14789;SDS011;7486;51.010;10.366;2023-06-22T08:11:12;8.05;;;6.50;;
14789;SDS011;7486;51.010;10.366;2023-06-22T08:13:58;7.40;;;6.40;;
14789;SDS011;7486;51.010;10.366;2023-06-22T08:16:43;6.80;;;6.18;;
14789;SDS011;7486;51.010;10.366;2023-06-22T08:19:29;6.90;;;6.20;;
14789;SDS011;7486;51.010;10.366;2023-06-22T08:22:15;6.82;;;6.07;;
14789;SDS011;7486;51.010;10.366;2023-06-22T08:25:01;7.80;;;6.68;;
14789;SDS011;7486;51.010;10.366;2023-06-22T08:27:47;8.23;;;6.57;;
14789;SDS011;7486;51.010;10.366;2023-06-22T08:30:33;7.05;;;6.45;;
14789;SDS011;7486;51.010;10.366;2023-06-22T08:33:19;7.65;;;6.18;;
14789;SDS011;7486;51.010;10.366;2023-06-22T08:36:12;6.90;;;6.20;;
14789;SDS011;7486;51.010;10.366;2023-06-22T08:38:58;8.32;;;6.03;;
14789;SDS011;7486;51.010;10.366;2023-06-22T08:41:44;8.05;;;6.57;;
14789;SDS011;7486;51.010;10.366;2023-06-22T08:44:29;7.00;;;6.38;;
14789;SDS011;7486;51.010;10.366;2023-06-22T08:47:15;6.72;;;6.00;;
14789;SDS011;7486;51.010;10.366;2023-06-22T08:50:00;6.82;;;6.20;;
14789;SDS011;7486;51.010;10.366;2023-06-22T08:52:46;6.15;;;5.65;;
14789;SDS011;7486;51.010;10.366;2023-06-22T08:55:32;6.07;;;5.50;;
14789;SDS011;7486;51.010;10.366;2023-06-22T08:58:18;6.65;;;6.05;;
14789;SDS011;7486;51.010;10.366;2023-06-22T09:01:04;7.85;;;6.07;;
14789;SDS011;7486;51.010;10.366;2023-06-22T09:03:50;5.88;;;5.38;;
14789;SDS011;7486;51.010;10.366;2023-06-22T09:06:36;6.35;;;5.32;;
14789;SDS011;7486;51.010;10.366;2023-06-22T09:09:21;6.65;;;5.90;;
14789;SDS011;7486;51.010;10.366;2023-06-22T09:12:07;6.43;;;5.57;;
14789;SDS011;7486;51.010;10.366;2023-06-22T09:14:53;6.25;;;5.63;;
14789;SDS011;7486;51.010;10.366;2023-06-22T09:17:39;6.70;;;6.10;;
14789;SDS011;7486;51.010;10.366;2023-06-22T09:20:26;6.45;;;5.85;;
14789;SDS011;7486;51.010;10.366;2023-06-22T09:23:12;6.05;;;5.20;;
14789;SDS011;7486;51.010;10.366;2023-06-22T09:25:57;6.57;;;5.97;;
14789;SDS011;7486;51.010;10.366;2023-06-22T09:28:43;7.43;;;5.85;;
14789;SDS011;7486;51.010;10.366;2023-06-22T09:31:29;6.30;;;5.80;;
14789;SDS011;7486;51.010;10.366;2023-06-22T09:34:14;6.88;;;5.60;;
14789;SDS011;7486;51.010;10.366;2023-06-22T09:37:00;6.32;;;5.72;;
14789;SDS011;7486;51.010;10.366;2023-06-22T09:39:45;6.03;;;5.50;;
14789;SDS011;7486;51.010;10.366;2023-06-22T09:42:31;6.82;;;5.80;;
14789;SDS011;7486;51.010;10.366;2023-06-22T09:45:16;6.10;;;5.60;;
14789;SDS011;7486;51.010;10.366;2023-06-22T09:48:01;5.93;;;5.43;;
14789;SDS011;7486;51.010;10.366;2023-06-22T09:50:47;6.53;;;5.85;;
14789;SDS011;7486;51.010;10.366;2023-06-22T09:53:34;6.68;;;6.00;;
14789;SDS011;7486;51.010;10.366;2023-06-22T09:56:24;6.88;;;6.05;;
14789;SDS011;7486;51.010;10.366;2023-06-22T09:59:12;7.43;;;6.30;;
14789;SDS011;7486;51.010;10.366;2023-06-22T10:02:03;7.57;;;5.93;;
14789;SDS011;7486;51.010;10.366;2023-06-22T10:04:49;6.88;;;6.18;;
14789;SDS011;7486;51.010;10.366;2023-06-22T10:07:34;6.85;;;5.82;;
14789;SDS011;7486;51.010;10.366;2023-06-22T10:10:20;8.07;;;6.05;;
14789;SDS011;7486;51.010;10.366;2023-06-22T10:13:09;7.38;;;6.30;;
14789;SDS011;7486;51.010;10.366;2023-06-22T10:15:55;7.57;;;5.90;;
14789;SDS011;7486;51.010;10.366;2023-06-22T10:18:40;6.47;;;5.88;;
14789;SDS011;7486;51.010;10.366;2023-06-22T10:21:26;6.97;;;5.97;;
14789;SDS011;7486;51.010;10.366;2023-06-22T10:24:58;7.10;;;6.38;;
14789;SDS011;7486;51.010;10.366;2023-06-22T10:27:34;7.78;;;5.95;;
14789;SDS011;7486;51.010;10.366;2023-06-22T10:30:19;6.95;;;6.25;;
14789;SDS011;7486;51.010;10.366;2023-06-22T10:33:05;6.90;;;6.20;;
14789;SDS011;7486;51.010;10.366;2023-06-22T10:35:50;7.07;;;6.38;;
14789;SDS011;7486;51.010;10.366;2023-06-22T10:38:35;8.95;;;6.05;;
14789;SDS011;7486;51.010;10.366;2023-06-22T10:41:21;7.07;;;5.80;;
14789;SDS011;7486;51.010;10.366;2023-06-22T10:44:06;7.63;;;6.63;;
14789;SDS011;7486;51.010;10.366;2023-06-22T10:46:51;6.80;;;6.20;;
14789;SDS011;7486;51.010;10.366;2023-06-22T10:49:38;7.03;;;6.35;;
14789;SDS011;7486;51.010;10.366;2023-06-22T10:52:23;7.30;;;6.60;;
14789;SDS011;7486;51.010;10.366;2023-06-22T10:55:09;7.32;;;6.63;;
14789;SDS011;7486;51.010;10.366;2023-06-22T10:57:55;8.30;;;7.50;;
14789;SDS011;7486;51.010;10.366;2023-06-22T11:00:40;8.18;;;6.90;;
14789;SDS011;7486;51.010;10.366;2023-06-22T11:03:26;7.00;;;6.40;;
14789;SDS011;7486;51.010;10.366;2023-06-22T11:06:12;8.45;;;7.15;;
14789;SDS011;7486;51.010;10.366;2023-06-22T11:08:58;7.18;;;6.53;;
14789;SDS011;7486;51.010;10.366;2023-06-22T11:11:51;6.93;;;6.20;;
14789;SDS011;7486;51.010;10.366;2023-06-22T11:14:38;7.18;;;6.55;;
14789;SDS011;7486;51.010;10.366;2023-06-22T11:17:26;7.95;;;6.25;;
14789;SDS011;7486;51.010;10.366;2023-06-22T11:20:12;6.88;;;6.28;;
14789;SDS011;7486;51.010;10.366;2023-06-22T11:22:58;7.70;;;6.88;;
14789;SDS011;7486;51.010;10.366;2023-06-22T11:25:43;8.02;;;6.75;;
14789;SDS011;7486;51.010;10.366;2023-06-22T11:28:28;8.25;;;6.75;;
14789;SDS011;7486;51.010;10.366;2023-06-22T11:31:14;7.90;;;7.10;;
14789;SDS011;7486;51.010;10.366;2023-06-22T11:34:11;7.40;;;6.70;;
14789;SDS011;7486;51.010;10.366;2023-06-22T11:36:56;8.93;;;6.68;;
14789;SDS011;7486;51.010;10.366;2023-06-22T11:39:42;7.47;;;6.82;;
14789;SDS011;7486;51.010;10.366;2023-06-22T11:42:37;6.80;;;6.20;;
14789;SDS011;7486;51.010;10.366;2023-06-22T11:45:23;6.80;;;6.10;;
14789;SDS011;7486;51.010;10.366;2023-06-22T11:48:08;6.38;;;5.78;;
14789;SDS011;7486;51.010;10.366;2023-06-22T11:50:54;6.65;;;5.90;;
14789;SDS011;7486;51.010;10.366;2023-06-22T11:53:42;7.00;;;6.15;;
14789;SDS011;7486;51.010;10.366;2023-06-22T11:56:28;7.40;;;6.05;;
14789;SDS011;7486;51.010;10.366;2023-06-22T11:59:13;7.25;;;5.78;;
14789;SDS011;7486;51.010;10.366;2023-06-22T12:01:59;6.38;;;5.78;;
14789;SDS011;7486;51.010;10.366;2023-06-22T12:04:45;6.55;;;5.95;;
14789;SDS011;7486;51.010;10.366;2023-06-22T12:07:30;7.25;;;6.63;;
14789;SDS011;7486;51.010;10.366;2023-06-22T12:10:15;7.57;;;5.85;;
14789;SDS011;7486;51.010;10.366;2023-06-22T12:13:01;7.13;;;6.43;;
14789;SDS011;7486;51.010;10.366;2023-06-22T12:15:47;6.57;;;5.88;;
14789;SDS011;7486;51.010;10.366;2023-06-22T12:18:32;6.85;;;6.15;;
14789;SDS011;7486;51.010;10.366;2023-06-22T12:21:18;6.63;;;5.97;;
14789;SDS011;7486;51.010;10.366;2023-06-22T12:24:04;6.28;;;5.68;;
14789;SDS011;7486;51.010;10.366;2023-06-22T12:26:50;7.90;;;6.20;;
14789;SDS011;7486;51.010;10.366;2023-06-22T12:29:37;7.95;;;6.88;;
14789;SDS011;7486;51.010;10.366;2023-06-22T12:32:22;9.30;;;7.03;;
14789;SDS011;7486;51.010;10.366;2023-06-22T12:35:09;7.40;;;6.22;;
14789;SDS011;7486;51.010;10.366;2023-06-22T12:37:54;8.77;;;6.32;;
14789;SDS011;7486;51.010;10.366;2023-06-22T12:40:40;6.88;;;6.28;;
14789;SDS011;7486;51.010;10.366;2023-06-22T12:43:26;7.10;;;6.38;;
14789;SDS011;7486;51.010;10.366;2023-06-22T12:46:11;7.10;;;6.40;;
14789;SDS011;7486;51.010;10.366;2023-06-22T12:48:57;7.28;;;5.97;;
14789;SDS011;7486;51.010;10.366;2023-06-22T12:51:43;7.18;;;6.30;;
14789;SDS011;7486;51.010;10.366;2023-06-22T12:54:29;6.95;;;5.93;;
14789;SDS011;7486;51.010;10.366;2023-06-22T12:57:19;7.00;;;6.25;;
14789;SDS011;7486;51.010;10.366;2023-06-22T13:00:04;6.90;;;6.20;;
14789;SDS011;7486;51.010;10.366;2023-06-22T13:02:50;6.85;;;6.15;;
14789;SDS011;7486;51.010;10.366;2023-06-22T13:05:38;8.45;;;6.00;;
14789;SDS011;7486;51.010;10.366;2023-06-22T13:08:24;6.60;;;5.93;;
14789;SDS011;7486;51.010;10.366;2023-06-22T13:11:29;8.05;;;6.13;;
14789;SDS011;7486;51.010;10.366;2023-06-22T13:14:15;6.10;;;5.50;;
14789;SDS011;7486;51.010;10.366;2023-06-22T13:17:00;6.32;;;5.72;;
14789;SDS011;7486;51.010;10.366;2023-06-22T13:19:46;7.05;;;6.35;;
14789;SDS011;7486;51.010;10.366;2023-06-22T13:22:32;6.25;;;5.68;;
14789;SDS011;7486;51.010;10.366;2023-06-22T13:25:19;6.55;;;6.00;;
14789;SDS011;7486;51.010;10.366;2023-06-22T13:28:05;6.60;;;6.00;;
14789;SDS011;7486;51.010;10.366;2023-06-22T13:31:07;6.20;;;5.47;;
14789;SDS011;7486;51.010;10.366;2023-06-22T13:33:56;6.75;;;6.10;;
14789;SDS011;7486;51.010;10.366;2023-06-22T13:36:42;6.15;;;5.57;;
14789;SDS011;7486;51.010;10.366;2023-06-22T13:39:27;6.60;;;6.00;;
14789;SDS011;7486;51.010;10.366;2023-06-22T13:42:12;7.20;;;5.85;;
14789;SDS011;7486;51.010;10.366;2023-06-22T13:44:58;6.25;;;5.72;;
14789;SDS011;7486;51.010;10.366;2023-06-22T13:47:43;6.60;;;5.57;;
14789;SDS011;7486;51.010;10.366;2023-06-22T13:50:29;7.18;;;5.63;;
14789;SDS011;7486;51.010;10.366;2023-06-22T13:53:16;6.70;;;6.10;;
14789;SDS011;7486;51.010;10.366;2023-06-22T13:56:01;6.00;;;5.50;;
14789;SDS011;7486;51.010;10.366;2023-06-22T13:58:47;6.95;;;6.35;;
14789;SDS011;7486;51.010;10.366;2023-06-22T14:01:33;7.13;;;5.95;;
14789;SDS011;7486;51.010;10.366;2023-06-22T14:04:18;8.65;;;6.22;;
14789;SDS011;7486;51.010;10.366;2023-06-22T14:07:04;6.78;;;5.60;;
14789;SDS011;7486;51.010;10.366;2023-06-22T14:09:50;8.77;;;6.55;;
14789;SDS011;7486;51.010;10.366;2023-06-22T14:12:35;6.63;;;5.95;;
14789;SDS011;7486;51.010;10.366;2023-06-22T14:15:21;6.53;;;5.93;;
14789;SDS011;7486;51.010;10.366;2023-06-22T14:18:06;6.60;;;5.68;;
14789;SDS011;7486;51.010;10.366;2023-06-22T14:20:52;7.15;;;5.88;;
14789;SDS011;7486;51.010;10.366;2023-06-22T14:23:38;6.93;;;5.97;;
14789;SDS011;7486;51.010;10.366;2023-06-22T14:26:23;6.57;;;5.97;;
14789;SDS011;7486;51.010;10.366;2023-06-22T14:29:09;6.32;;;5.70;;
14789;SDS011;7486;51.010;10.366;2023-06-22T14:31:54;6.95;;;5.35;;
14789;SDS011;7486;51.010;10.366;2023-06-22T14:34:40;6.70;;;5.90;;
14789;SDS011;7486;51.010;10.366;2023-06-22T14:37:25;6.63;;;5.93;;
14789;SDS011;7486;51.010;10.366;2023-06-22T14:40:10;6.80;;;6.10;;
14789;SDS011;7486;51.010;10.366;2023-06-22T14:42:57;6.32;;;5.68;;
14789;SDS011;7486;51.010;10.366;2023-06-22T14:45:42;5.97;;;5.38;;
14789;SDS011;7486;51.010;10.366;2023-06-22T14:48:27;6.63;;;6.03;;
14789;SDS011;7486;51.010;10.366;2023-06-22T14:51:14;6.57;;;5.70;;
14789;SDS011;7486;51.010;10.366;2023-06-22T14:54:02;7.85;;;6.10;;
14789;SDS011;7486;51.010;10.366;2023-06-22T14:56:48;6.78;;;6.05;;
14789;SDS011;7486;51.010;10.366;2023-06-22T14:59:33;8.75;;;6.15;;
14789;SDS011;7486;51.010;10.366;2023-06-22T15:02:18;6.47;;;5.88;;
14789;SDS011;7486;51.010;10.366;2023-06-22T15:05:04;6.80;;;6.10;;
14789;SDS011;7486;51.010;10.366;2023-06-22T15:07:50;6.85;;;6.22;;
14789;SDS011;7486;51.010;10.366;2023-06-22T15:10:36;7.00;;;6.30;;
14789;SDS011;7486;51.010;10.366;2023-06-22T15:13:22;7.00;;;6.30;;
14789;SDS011;7486;51.010;10.366;2023-06-22T15:16:08;6.85;;;6.15;;
14789;SDS011;7486;51.010;10.366;2023-06-22T15:18:54;6.63;;;6.03;;
14789;SDS011;7486;51.010;10.366;2023-06-22T15:21:39;8.07;;;5.72;;
14789;SDS011;7486;51.010;10.366;2023-06-22T15:24:25;6.53;;;5.85;;
14789;SDS011;7486;51.010;10.366;2023-06-22T15:27:11;6.78;;;5.60;;
14789;SDS011;7486;51.010;10.366;2023-06-22T15:29:56;8.20;;;5.85;;
14789;SDS011;7486;51.010;10.366;2023-06-22T15:32:45;6.95;;;6.25;;
14789;SDS011;7486;51.010;10.366;2023-06-22T15:35:30;7.15;;;6.45;;
14789;SDS011;7486;51.010;10.366;2023-06-22T15:38:16;6.90;;;6.30;;
14789;SDS011;7486;51.010;10.366;2023-06-22T15:41:01;7.03;;;5.88;;
14789;SDS011;7486;51.010;10.366;2023-06-22T15:43:47;6.70;;;6.00;;
14789;SDS011;7486;51.010;10.366;2023-06-22T15:46:32;6.97;;;6.28;;
14789;SDS011;7486;51.010;10.366;2023-06-22T15:49:18;7.10;;;6.40;;
14789;SDS011;7486;51.010;10.366;2023-06-22T15:52:04;7.25;;;6.55;;
14789;SDS011;7486;51.010;10.366;2023-06-22T15:54:49;7.80;;;6.32;;
14789;SDS011;7486;51.010;10.366;2023-06-22T15:57:34;7.68;;;6.72;;
14789;SDS011;7486;51.010;10.366;2023-06-22T16:00:20;7.05;;;6.35;;
14789;SDS011;7486;51.010;10.366;2023-06-22T16:03:06;7.22;;;6.63;;
14789;SDS011;7486;51.010;10.366;2023-06-22T16:05:52;6.95;;;6.25;;
14789;SDS011;7486;51.010;10.366;2023-06-22T16:08:37;7.72;;;6.03;;
14789;SDS011;7486;51.010;10.366;2023-06-22T16:11:22;7.85;;;6.80;;
14789;SDS011;7486;51.010;10.366;2023-06-22T16:14:07;8.32;;;6.47;;
14789;SDS011;7486;51.010;10.366;2023-06-22T16:16:53;6.97;;;6.38;;
14789;SDS011;7486;51.010;10.366;2023-06-22T16:19:38;7.35;;;6.57;;
14789;SDS011;7486;51.010;10.366;2023-06-22T16:22:24;7.50;;;6.60;;
14789;SDS011;7486;51.010;10.366;2023-06-22T16:25:10;7.72;;;6.72;;
14789;SDS011;7486;51.010;10.366;2023-06-22T16:27:55;7.15;;;6.47;;
14789;SDS011;7486;51.010;10.366;2023-06-22T16:30:41;7.03;;;6.35;;
14789;SDS011;7486;51.010;10.366;2023-06-22T16:33:26;7.35;;;6.65;;
14789;SDS011;7486;51.010;10.366;2023-06-22T16:36:12;7.20;;;6.50;;
14789;SDS011;7486;51.010;10.366;2023-06-22T16:38:58;7.13;;;6.53;;
14789;SDS011;7486;51.010;10.366;2023-06-22T16:41:43;7.25;;;6.65;;
14789;SDS011;7486;51.010;10.366;2023-06-22T16:44:29;7.68;;;6.88;;
14789;SDS011;7486;51.010;10.366;2023-06-22T16:47:14;7.45;;;6.75;;
14789;SDS011;7486;51.010;10.366;2023-06-22T16:50:00;7.25;;;6.55;;
14789;SDS011;7486;51.010;10.366;2023-06-22T16:52:46;7.90;;;6.85;;
14789;SDS011;7486;51.010;10.366;2023-06-22T16:55:31;7.18;;;6.57;;